Main page
METAR-TAF:

METAR-TAF

Airports :

Jack Brooks Regional Airport

Beaumont / Port Arthur, Texas, United States

latitude: 29-57-03N, longitude: 094-01-15W, elevation: 16 ft

Current weather observation

The report was made 26 minutes ago, at 08:53 UTC
Wind 6 mph from the South/Southwest
Temperature 79°F
Humidity 100%
Pressure 29.99 in. Hg
Visibility: 9 miles
Clear sky

METAR: KBPT 110853Z AUTO 21005KT 9SM CLR 26/26 A2999 RMK AO2 SLP155 T02610261 50001

Time: 04:19 (09:19 UTC)

Forecast

The report was made 3 hours and 59 minutes ago, at 05:20 UTC
Forecast valid from 11 at 06 UTC to 12 at 06 UTC
Wind 3 mph from the South/Southwest
Visibility: 6 miles
Clear sky
From 11 at 1500 UTC
Wind 7 mph from the West
Visibility: 6 miles
Scattered clouds at a height of 4000 ft
Scattered clouds at a height of 15000 ft
From 12 at 0100 UTC
Wind 5 mph from the South/Southwest
Visibility: 6 miles
Clear sky

TAF: KBPT 110520Z 1106/1206 20003KT P6SM SKC FM111500 28006KT P6SM SCT040 SCT150 FM120100 21004KT P6SM SKC

Weather observations and forecasts of more than 4000 airports (METAR and TAF reports).

The available stations are represented by yellow and red dots on the map.

Hover mouse over dot to see the name of the station.

Then click to see weather observations and forecasts.

To change the map : click on the green buttons with a black cross to zoom in, on the green button with a dash to zoom out, or on the green arrows for adjacent maps.


METAR-TAF: